Ararat, Australia
Current Conditions -  °F | °C
As of 3:00 PM on Monday 20 Oct 2014 (Local Time) from YMAV Reporting Station
Clear Clear  
Wind Chill: 66°   Ceiling: Unl
Heat Index: 66°   Visibility: 6mi
Dew Point: 48°   Wind: 17mph
Humidity: 52%   Direction: 170°S
Pressure: 30.36"   Gusts: NA
Location:  37.28°S, 142.93°E
Report Text: YMAV 200400Z AUTO 17015KT 9999 // NCD 19/09 Q1028
Loading
Personal Weather Stations






























Interactive Weather Map
Tropical Storm Tracking
New forecast layout! Learn more

10-Day Weather Forecast

Advertisements
Track Severe Weather on mobile